createdAt,value
2022-07-30T00:00:29.639Z,901.60
2022-07-30T00:01:29.651Z,898.70
2022-07-30T00:02:29.567Z,902.80
2022-07-30T00:03:29.677Z,905.70
2022-07-30T00:04:29.546Z,913.70
2022-07-30T00:05:29.536Z,903.90
2022-07-30T00:06:29.520Z,906.40
2022-07-30T00:07:29.556Z,918.20
2022-07-30T00:08:29.587Z,908.00
2022-07-30T00:09:29.478Z,890.80
2022-07-30T00:10:29.477Z,893.30
2022-07-30T00:11:29.471Z,900.80
2022-07-30T00:12:29.482Z,916.00
2022-07-30T00:13:29.430Z,921.60
2022-07-30T00:14:29.409Z,938.50
2022-07-30T00:15:29.411Z,930.20
2022-07-30T00:16:29.444Z,936.40
2022-07-30T00:17:29.379Z,938.90
2022-07-30T00:18:29.354Z,932.90
2022-07-30T00:19:29.430Z,931.00
2022-07-30T00:20:29.340Z,933.50
2022-07-30T00:21:36.137Z,916.40
2022-07-30T00:22:30.304Z,915.00
2022-07-30T00:23:29.301Z,900.60
2022-07-30T00:24:29.271Z,884.20
2022-07-30T00:25:29.268Z,929.70
2022-07-30T00:26:29.262Z,928.00
2022-07-30T00:27:29.250Z,926.00
2022-07-30T00:28:29.239Z,912.00
2022-07-30T00:29:29.220Z,900.40
2022-07-30T00:30:29.561Z,887.70
2022-07-30T00:31:29.195Z,874.10
2022-07-30T00:32:29.179Z,886.60
2022-07-30T00:33:29.172Z,883.80
2022-07-30T00:34:29.142Z,890.10
2022-07-30T00:35:29.134Z,882.30
2022-07-30T00:36:29.126Z,878.40
2022-07-30T00:37:29.112Z,884.40
2022-07-30T00:38:29.091Z,873.90
2022-07-30T00:39:29.083Z,881.30
2022-07-30T00:40:29.072Z,889.70
2022-07-30T00:41:29.467Z,894.30
2022-07-30T00:42:29.041Z,883.70
2022-07-30T00:43:29.030Z,893.10
2022-07-30T00:44:29.014Z,879.20
2022-07-30T00:45:29.048Z,891.40
2022-07-30T00:46:28.997Z,880.00
2022-07-30T00:47:28.973Z,895.80
2022-07-30T00:48:28.963Z,888.50
2022-07-30T00:49:28.946Z,885.30
2022-07-30T00:50:28.933Z,893.70
2022-07-30T00:51:28.930Z,888.30
2022-07-30T00:52:28.992Z,874.80
2022-07-30T00:53:28.893Z,875.00
2022-07-30T00:54:28.885Z,884.50
2022-07-30T00:55:28.863Z,885.40
2022-07-30T00:56:28.863Z,911.20
2022-07-30T00:57:28.844Z,904.30
2022-07-30T00:58:28.835Z,910.40
2022-07-30T00:59:28.817Z,924.10
2022-07-30T01:00:28.809Z,929.90
2022-07-30T01:01:28.857Z,906.80
2022-07-30T01:02:28.931Z,906.00
2022-07-30T01:03:28.834Z,883.10
2022-07-30T01:04:28.756Z,881.50
2022-07-30T01:05:28.734Z,879.70
2022-07-30T01:06:28.726Z,879.50
2022-07-30T01:07:28.704Z,884.50
2022-07-30T01:08:28.695Z,879.70
2022-07-30T01:09:28.686Z,872.70
2022-07-30T01:10:28.674Z,885.00
2022-07-30T01:11:28.658Z,884.40
2022-07-30T01:12:28.653Z,879.60
2022-07-30T01:13:28.634Z,888.30
2022-07-30T01:14:28.744Z,890.20
2022-07-30T01:15:28.606Z,880.90
2022-07-30T01:16:28.654Z,892.70
2022-07-30T01:17:28.589Z,885.00
2022-07-30T01:18:28.568Z,880.60
2022-07-30T01:19:28.551Z,881.90
2022-07-30T01:20:28.547Z,880.90
2022-07-30T01:21:28.526Z,882.30
2022-07-30T01:22:30.398Z,897.70
2022-07-30T01:23:28.496Z,882.90
2022-07-30T01:24:28.487Z,881.60
2022-07-30T01:25:28.607Z,886.90
2022-07-30T01:26:28.458Z,882.00
2022-07-30T01:27:28.437Z,887.00
2022-07-30T01:28:28.428Z,885.90
2022-07-30T01:29:28.416Z,885.10
2022-07-30T01:30:28.408Z,895.40
2022-07-30T01:31:28.420Z,891.20
2022-07-30T01:32:28.379Z,885.90
2022-07-30T01:33:28.368Z,910.90
2022-07-30T01:34:28.445Z,875.70
2022-07-30T01:35:28.339Z,902.00
2022-07-30T01:36:28.727Z,887.00
2022-07-30T01:37:28.308Z,886.10
2022-07-30T01:38:31.075Z,883.00
2022-07-30T01:39:29.280Z,890.60
2022-07-30T01:40:28.279Z,891.90
2022-07-30T01:41:28.258Z,887.00
2022-07-30T01:42:28.269Z,892.70
2022-07-30T01:43:28.230Z,894.90
2022-07-30T01:44:28.219Z,901.40
2022-07-30T01:45:28.259Z,893.20
2022-07-30T01:46:28.189Z,893.40
2022-07-30T01:47:28.276Z,893.20
2022-07-30T01:48:28.171Z,930.10
2022-07-30T01:49:28.149Z,895.50
2022-07-30T01:50:28.141Z,889.70
2022-07-30T01:51:33.485Z,893.50
2022-07-30T01:52:29.121Z,899.70
2022-07-30T01:53:28.101Z,922.90
2022-07-30T01:54:28.098Z,891.30
2022-07-30T01:55:28.072Z,902.30
2022-07-30T01:56:28.062Z,888.90
2022-07-30T01:57:28.051Z,916.20
2022-07-30T01:58:28.101Z,909.20
2022-07-30T01:59:28.019Z,893.70
2022-07-30T02:00:28.011Z,899.10
2022-07-30T02:01:28.041Z,887.60
2022-07-30T02:02:27.982Z,901.20
2022-07-30T02:03:28.062Z,899.90
2022-07-30T02:04:27.952Z,892.50
2022-07-30T02:05:27.953Z,899.70
2022-07-30T02:06:27.929Z,896.40
2022-07-30T02:07:27.923Z,895.80
2022-07-30T02:08:27.904Z,897.10
2022-07-30T02:09:27.952Z,904.90
2022-07-30T02:10:27.880Z,898.90
2022-07-30T02:11:27.863Z,894.40
2022-07-30T02:12:27.845Z,895.70
2022-07-30T02:13:27.842Z,897.90
2022-07-30T02:14:27.822Z,900.80
2022-07-30T02:15:27.804Z,903.10
2022-07-30T02:16:27.862Z,903.70
2022-07-30T02:17:30.417Z,883.90
2022-07-30T02:18:28.766Z,885.00
2022-07-30T02:19:32.500Z,884.60
2022-07-30T02:20:29.706Z,914.80
2022-07-30T02:21:36.458Z,904.60
2022-07-30T02:22:28.713Z,920.40
2022-07-30T02:23:27.704Z,903.00
2022-07-30T02:24:27.685Z,899.60
2022-07-30T02:25:27.678Z,910.70
2022-07-30T02:26:27.662Z,921.20
2022-07-30T02:27:27.655Z,896.00
2022-07-30T02:28:27.635Z,892.50
2022-07-30T02:29:27.643Z,898.90
2022-07-30T02:30:27.613Z,887.90
2022-07-30T02:31:27.744Z,897.30
2022-07-30T02:32:27.740Z,898.80
2022-07-30T02:33:27.575Z,899.50
2022-07-30T02:34:27.555Z,892.00
2022-07-30T02:35:27.545Z,893.50
2022-07-30T02:36:27.536Z,900.30
2022-07-30T02:37:41.157Z,894.30
2022-07-30T02:38:28.508Z,885.70
2022-07-30T02:39:27.496Z,889.80
2022-07-30T02:40:27.476Z,896.30
2022-07-30T02:41:27.466Z,883.30
2022-07-30T02:42:27.597Z,897.40
2022-07-30T02:43:27.455Z,898.40
2022-07-30T02:44:27.426Z,899.60
2022-07-30T02:45:27.416Z,914.40
2022-07-30T02:46:27.440Z,905.60
2022-07-30T02:47:27.388Z,915.60
2022-07-30T02:48:31.261Z,909.30
2022-07-30T02:49:28.357Z,921.40
2022-07-30T02:50:27.348Z,912.00
2022-07-30T02:51:27.346Z,922.80
2022-07-30T02:52:27.337Z,930.20
2022-07-30T02:53:27.478Z,921.60
2022-07-30T02:54:27.303Z,894.80
2022-07-30T02:55:27.287Z,899.70
2022-07-30T02:56:27.269Z,879.70
2022-07-30T02:57:27.258Z,912.10
2022-07-30T02:58:27.239Z,888.70
2022-07-30T02:59:27.237Z,882.40
2022-07-30T03:00:27.271Z,889.50
2022-07-30T03:01:27.200Z,895.10
2022-07-30T03:02:29.568Z,894.50
2022-07-30T03:03:27.179Z,887.90
2022-07-30T03:04:27.437Z,898.00
2022-07-30T03:05:27.148Z,907.40
2022-07-30T03:06:27.141Z,899.30
2022-07-30T03:07:27.122Z,913.80
2022-07-30T03:08:27.112Z,924.00
2022-07-30T03:09:27.099Z,918.20
2022-07-30T03:10:28.080Z,913.00
2022-07-30T03:11:27.070Z,911.30
2022-07-30T03:12:27.049Z,904.00
2022-07-30T03:13:27.060Z,881.00
2022-07-30T03:14:27.029Z,917.60
2022-07-30T03:15:27.343Z,899.50
2022-07-30T03:16:27.027Z,906.10
2022-07-30T03:17:27.001Z,901.10
2022-07-30T03:18:26.971Z,923.30
2022-07-30T03:19:26.961Z,908.70
2022-07-30T03:20:26.949Z,907.30
2022-07-30T03:21:26.942Z,927.10
2022-07-30T03:22:31.229Z,908.10
2022-07-30T03:23:27.912Z,897.30
2022-07-30T03:24:26.893Z,880.90
2022-07-30T03:25:26.891Z,904.10
2022-07-30T03:26:27.000Z,906.10
2022-07-30T03:27:26.863Z,909.00
2022-07-30T03:28:26.841Z,908.90
2022-07-30T03:29:26.833Z,897.40
2022-07-30T03:30:26.841Z,909.50
2022-07-30T03:31:28.377Z,923.00
2022-07-30T03:32:27.792Z,908.30
2022-07-30T03:33:38.335Z,892.20
2022-07-30T03:34:27.771Z,895.50
2022-07-30T03:35:26.752Z,883.60
2022-07-30T03:36:26.743Z,875.50
2022-07-30T03:37:27.132Z,880.10
2022-07-30T03:38:26.716Z,890.10
2022-07-30T03:39:26.703Z,882.50
2022-07-30T03:40:26.683Z,888.60
2022-07-30T03:41:26.682Z,887.10
2022-07-30T03:42:26.663Z,889.20
2022-07-30T03:43:33.339Z,885.60
2022-07-30T03:44:27.634Z,886.90
2022-07-30T03:45:26.627Z,889.70
2022-07-30T03:46:26.674Z,878.00
2022-07-30T03:47:26.595Z,875.00
2022-07-30T03:48:26.675Z,880.00
2022-07-30T03:49:26.630Z,881.20
2022-07-30T03:50:26.574Z,899.00
2022-07-30T03:51:26.545Z,899.90
2022-07-30T03:52:27.527Z,903.40
2022-07-30T03:53:26.514Z,888.30
2022-07-30T03:54:26.505Z,896.90
2022-07-30T03:55:26.499Z,902.30
2022-07-30T03:56:26.483Z,886.20
2022-07-30T03:57:26.467Z,906.40
2022-07-30T03:58:26.453Z,898.90
2022-07-30T03:59:26.536Z,903.70
2022-07-30T04:00:26.438Z,884.40
2022-07-30T04:01:26.468Z,891.70
2022-07-30T04:02:26.398Z,892.20
2022-07-30T04:03:26.478Z,879.30
2022-07-30T04:04:26.368Z,884.20
2022-07-30T04:05:26.366Z,887.30
2022-07-30T04:06:26.374Z,883.40
2022-07-30T04:07:26.350Z,891.40
2022-07-30T04:08:26.325Z,887.60
2022-07-30T04:09:26.319Z,887.50
2022-07-30T04:10:26.606Z,885.30
2022-07-30T04:11:40.844Z,886.50
2022-07-30T04:12:27.265Z,889.70
2022-07-30T04:13:26.254Z,886.10
2022-07-30T04:14:26.238Z,888.20
2022-07-30T04:16:40.438Z,893.10
2022-07-30T04:16:41.356Z,912.50
2022-07-30T04:17:27.226Z,889.30
2022-07-30T04:18:26.178Z,873.30
2022-07-30T04:19:26.168Z,943.10
2022-07-30T04:20:26.168Z,956.40
2022-07-30T04:21:26.229Z,944.80
2022-07-30T04:22:26.148Z,980.20
2022-07-30T04:23:26.129Z,999.90
2022-07-30T04:24:26.108Z,976.80
2022-07-30T04:25:26.099Z,989.80
2022-07-30T04:26:26.079Z,989.50
2022-07-30T04:27:26.068Z,979.50
2022-07-30T04:28:26.058Z,986.50
2022-07-30T04:29:26.039Z,991.50
2022-07-30T04:30:26.028Z,986.00
2022-07-30T04:31:26.069Z,980.20
2022-07-30T04:32:26.448Z,990.50
2022-07-30T04:33:26.011Z,988.20
2022-07-30T04:34:25.998Z,981.00
2022-07-30T04:35:51.385Z,998.30
2022-07-30T04:36:26.952Z,986.80
2022-07-30T04:37:25.941Z,984.80
2022-07-30T04:38:25.923Z,991.50
2022-07-30T04:39:25.913Z,975.10
2022-07-30T04:40:25.891Z,965.40
2022-07-30T04:41:25.885Z,952.60
2022-07-30T04:42:25.871Z,956.40
2022-07-30T04:43:26.011Z,975.20
2022-07-30T04:44:25.832Z,987.00
2022-07-30T04:45:25.840Z,985.30
2022-07-30T04:46:25.864Z,944.70
2022-07-30T04:47:25.801Z,938.00
2022-07-30T04:48:25.792Z,939.80
2022-07-30T04:49:25.820Z,950.20
2022-07-30T04:50:25.762Z,949.80
2022-07-30T04:51:25.753Z,952.00
2022-07-30T04:52:25.742Z,949.70
2022-07-30T04:53:25.722Z,940.40
2022-07-30T04:54:26.897Z,934.10
2022-07-30T04:55:25.712Z,944.30
2022-07-30T04:56:25.682Z,946.90
2022-07-30T04:57:25.688Z,943.20
2022-07-30T04:58:25.654Z,941.40
2022-07-30T04:59:25.651Z,935.80
2022-07-30T05:00:25.635Z,941.50
2022-07-30T05:01:37.079Z,942.70
2022-07-30T05:02:26.605Z,943.10
2022-07-30T05:03:25.594Z,950.70
2022-07-30T05:04:25.758Z,949.30
2022-07-30T05:05:25.737Z,942.50
2022-07-30T05:06:25.554Z,948.00
2022-07-30T05:07:25.549Z,941.70
2022-07-30T05:08:25.531Z,941.30
2022-07-30T05:09:25.504Z,884.20
2022-07-30T05:10:25.506Z,885.40
2022-07-30T05:11:25.485Z,881.10
2022-07-30T05:12:25.475Z,882.70
2022-07-30T05:13:27.635Z,891.40
2022-07-30T05:14:26.453Z,892.70
2022-07-30T05:15:35.897Z,903.70
2022-07-30T05:16:26.617Z,898.20
2022-07-30T05:17:25.405Z,880.20
2022-07-30T05:18:25.396Z,923.60
2022-07-30T05:19:25.398Z,938.90
2022-07-30T05:20:25.367Z,937.60
2022-07-30T05:21:25.353Z,941.20
2022-07-30T05:22:25.348Z,943.40
2022-07-30T05:23:25.325Z,944.30
2022-07-30T05:24:25.316Z,953.00
2022-07-30T05:25:25.299Z,958.40
2022-07-30T05:26:27.770Z,940.90
2022-07-30T05:27:25.352Z,946.60
2022-07-30T05:28:25.285Z,959.90
2022-07-30T05:29:25.244Z,918.50
2022-07-30T05:30:27.600Z,915.00
2022-07-30T05:31:25.250Z,908.20
2022-07-30T05:32:25.513Z,910.60
2022-07-30T05:33:42.273Z,918.80
2022-07-30T05:34:26.187Z,895.00
2022-07-30T05:35:25.168Z,911.90
2022-07-30T05:36:25.161Z,906.20
2022-07-30T05:37:25.140Z,929.90
2022-07-30T05:38:25.549Z,914.90
2022-07-30T05:39:25.116Z,951.10
2022-07-30T05:40:25.108Z,947.00
2022-07-30T05:41:32.194Z,963.80
2022-07-30T05:42:26.108Z,966.00
2022-07-30T05:43:25.059Z,956.50
2022-07-30T05:44:25.049Z,948.00
2022-07-30T05:45:25.037Z,943.80
2022-07-30T05:46:25.072Z,929.80
2022-07-30T05:47:25.015Z,931.10
2022-07-30T05:48:24.999Z,934.60
2022-07-30T05:49:25.368Z,933.10
2022-07-30T05:50:24.969Z,939.40
2022-07-30T05:51:24.949Z,933.70
2022-07-30T05:52:24.990Z,928.90
2022-07-30T05:53:24.930Z,927.00
2022-07-30T05:54:24.974Z,939.50
2022-07-30T05:55:24.899Z,919.50
2022-07-30T05:56:24.890Z,924.50
2022-07-30T05:57:24.870Z,925.20
2022-07-30T05:58:24.871Z,906.30
2022-07-30T05:59:24.855Z,902.60
2022-07-30T06:00:24.931Z,905.40
2022-07-30T06:01:24.863Z,895.60
2022-07-30T06:02:25.082Z,890.40
2022-07-30T06:03:24.793Z,903.10
2022-07-30T06:04:24.831Z,910.10
2022-07-30T06:05:24.772Z,941.90
2022-07-30T06:06:24.752Z,930.90
2022-07-30T06:07:24.743Z,919.40
2022-07-30T06:08:24.732Z,911.30
2022-07-30T06:09:29.780Z,933.80
2022-07-30T06:10:25.824Z,948.90
2022-07-30T06:11:24.691Z,955.80
2022-07-30T06:12:24.684Z,953.70
2022-07-30T06:13:24.669Z,983.80
2022-07-30T06:14:24.656Z,985.50
2022-07-30T06:15:26.242Z,999.90
2022-07-30T06:16:24.647Z,999.90
2022-07-30T06:17:24.612Z,999.90
2022-07-30T06:18:24.604Z,998.90
2022-07-30T06:19:24.635Z,999.90
2022-07-30T06:20:24.574Z,975.60
2022-07-30T06:21:24.594Z,999.90
2022-07-30T06:22:26.194Z,999.90
2022-07-30T06:23:24.534Z,987.10
2022-07-30T06:24:24.515Z,999.90
2022-07-30T06:25:24.507Z,997.50
2022-07-30T06:26:24.497Z,999.90
2022-07-30T06:27:24.476Z,999.90
2022-07-30T06:28:39.927Z,999.90
2022-07-30T06:29:25.454Z,999.90
2022-07-30T06:30:31.454Z,999.90
2022-07-30T06:31:26.187Z,999.90
2022-07-30T06:32:24.416Z,999.90
2022-07-30T06:33:24.398Z,999.90
2022-07-30T06:34:24.386Z,999.90
2022-07-30T06:35:24.367Z,999.90
2022-07-30T06:36:24.367Z,999.90
2022-07-30T06:37:24.346Z,999.90
2022-07-30T06:38:25.328Z,999.90
2022-07-30T06:39:56.035Z,999.90
2022-07-30T06:40:25.308Z,999.90
2022-07-30T06:41:24.290Z,999.90
2022-07-30T06:42:24.638Z,999.90
2022-07-30T06:43:24.288Z,999.90
2022-07-30T06:44:24.272Z,999.90
2022-07-30T06:45:24.238Z,999.90
2022-07-30T06:46:24.290Z,999.90
2022-07-30T06:47:24.209Z,999.90
2022-07-30T06:48:24.210Z,999.90
2022-07-30T06:49:24.239Z,999.90
2022-07-30T06:50:24.178Z,999.90
2022-07-30T06:51:24.159Z,999.90
2022-07-30T06:52:24.159Z,997.00
2022-07-30T06:53:24.540Z,983.10
2022-07-30T06:54:24.120Z,969.70
2022-07-30T06:55:24.109Z,970.60
2022-07-30T06:56:24.091Z,978.60
2022-07-30T06:57:24.102Z,987.80
2022-07-30T06:58:25.369Z,999.90
2022-07-30T06:59:24.052Z,999.90
2022-07-30T07:00:24.040Z,983.00
2022-07-30T07:01:24.064Z,975.50
2022-07-30T07:02:24.020Z,968.10
2022-07-30T07:03:24.002Z,971.40
2022-07-30T07:04:24.050Z,969.90
2022-07-30T07:05:23.972Z,975.90
2022-07-30T07:06:23.970Z,993.70
2022-07-30T07:07:40.647Z,987.90
2022-07-30T07:08:25.298Z,981.80
2022-07-30T07:09:23.922Z,999.40
2022-07-30T07:10:23.911Z,994.20
2022-07-30T07:11:23.901Z,999.90
2022-07-30T07:12:23.882Z,999.90
2022-07-30T07:13:23.873Z,999.90
2022-07-30T07:14:23.871Z,999.90
2022-07-30T07:15:36.153Z,976.90
2022-07-30T07:16:24.878Z,987.20
2022-07-30T07:17:23.909Z,999.90
2022-07-30T07:18:23.803Z,996.70
2022-07-30T07:20:00.931Z,999.90
2022-07-30T07:20:24.873Z,999.90
2022-07-30T07:21:23.763Z,979.90
2022-07-30T07:22:23.753Z,979.40
2022-07-30T07:23:23.744Z,982.60
2022-07-30T07:24:23.732Z,992.30
2022-07-30T07:25:23.712Z,980.00
2022-07-30T07:26:23.944Z,993.50
2022-07-30T07:27:23.683Z,999.90
2022-07-30T07:28:33.309Z,988.90
2022-07-30T07:29:24.656Z,999.90
2022-07-30T07:30:23.646Z,992.50
2022-07-30T07:32:06.273Z,999.40
2022-07-30T07:32:24.619Z,984.50
2022-07-30T07:33:23.608Z,986.50
2022-07-30T07:34:23.615Z,991.30
2022-07-30T07:35:23.588Z,983.40
2022-07-30T07:36:23.572Z,986.80
2022-07-30T07:37:23.875Z,993.00
2022-07-30T07:38:23.557Z,993.50
2022-07-30T07:39:23.519Z,990.00
2022-07-30T07:40:24.595Z,994.40
2022-07-30T07:41:23.515Z,987.90
2022-07-30T07:42:23.651Z,995.30
2022-07-30T07:43:23.483Z,994.20
2022-07-30T07:44:23.476Z,983.70
2022-07-30T07:45:23.446Z,984.50
2022-07-30T07:46:33.618Z,989.60
2022-07-30T07:47:24.670Z,993.70
2022-07-30T07:48:23.408Z,988.40
2022-07-30T07:49:23.427Z,989.80
2022-07-30T07:50:23.446Z,979.40
2022-07-30T07:51:47.012Z,973.60
2022-07-30T07:52:24.372Z,993.90
2022-07-30T07:53:23.339Z,977.80
2022-07-30T07:54:23.543Z,980.30
2022-07-30T07:55:23.311Z,980.40
2022-07-30T07:56:23.307Z,968.50
2022-07-30T07:57:23.574Z,966.10
2022-07-30T07:58:26.217Z,981.70
2022-07-30T07:59:23.279Z,949.70
2022-07-30T08:00:23.277Z,980.30
2022-07-30T08:01:23.241Z,974.50
2022-07-30T08:02:23.262Z,956.50
2022-07-30T08:03:23.210Z,969.80
2022-07-30T08:04:23.202Z,957.40
2022-07-30T08:05:23.183Z,961.40
2022-07-30T08:06:23.181Z,992.40
2022-07-30T08:07:23.204Z,982.20
2022-07-30T08:08:23.151Z,965.10
2022-07-30T08:09:23.214Z,963.30
2022-07-30T08:10:23.214Z,963.70
2022-07-30T08:11:23.102Z,968.70
2022-07-30T08:12:23.092Z,977.70
2022-07-30T08:13:52.201Z,977.30
2022-07-30T08:14:24.063Z,966.10
2022-07-30T08:15:23.053Z,992.70
2022-07-30T08:16:23.091Z,966.50
2022-07-30T08:17:23.079Z,943.00
2022-07-30T08:18:23.030Z,983.90
2022-07-30T08:19:22.996Z,973.90
2022-07-30T08:20:23.070Z,969.10
2022-07-30T08:21:22.973Z,978.80
2022-07-30T08:22:22.952Z,967.70
2022-07-30T08:23:22.943Z,961.90
2022-07-30T08:24:22.933Z,972.80
2022-07-30T08:25:24.466Z,972.20
2022-07-30T08:26:22.916Z,958.80
2022-07-30T08:27:22.893Z,968.30
2022-07-30T08:28:35.934Z,968.90
2022-07-30T08:29:23.866Z,966.30
2022-07-30T08:30:22.999Z,967.70
2022-07-30T08:31:23.172Z,968.50
2022-07-30T08:32:22.834Z,981.20
2022-07-30T08:33:22.804Z,969.10
2022-07-30T08:34:25.739Z,974.00
2022-07-30T08:35:22.785Z,967.50
2022-07-30T08:36:25.766Z,976.90
2022-07-30T08:37:22.755Z,972.60
2022-07-30T08:38:22.765Z,975.80
2022-07-30T08:39:22.727Z,976.50
2022-07-30T08:40:22.727Z,965.40
2022-07-30T08:41:22.705Z,980.50
2022-07-30T08:42:22.775Z,978.60
2022-07-30T08:43:22.688Z,974.30
2022-07-30T08:44:22.666Z,968.80
2022-07-30T08:45:34.709Z,985.80
2022-07-30T08:46:23.646Z,990.90
2022-07-30T08:47:22.637Z,990.20
2022-07-30T08:48:22.628Z,984.20
2022-07-30T08:49:22.607Z,986.80
2022-07-30T08:50:22.589Z,991.20
2022-07-30T08:51:22.568Z,992.80
2022-07-30T08:52:22.577Z,993.70
2022-07-30T08:53:22.695Z,984.50
2022-07-30T08:54:22.558Z,979.20
2022-07-30T08:55:22.528Z,977.40
2022-07-30T08:56:22.537Z,987.70
2022-07-30T08:57:22.489Z,985.20
2022-07-30T08:58:22.487Z,986.00
2022-07-30T08:59:22.477Z,996.60
2022-07-30T09:00:22.469Z,999.70
2022-07-30T09:01:22.440Z,993.30
2022-07-30T09:02:27.490Z,999.60
2022-07-30T09:03:23.421Z,998.50
2022-07-30T09:04:22.419Z,989.10
2022-07-30T09:05:22.392Z,982.10
2022-07-30T09:06:22.387Z,965.20
2022-07-30T09:07:22.362Z,974.50
2022-07-30T09:08:22.349Z,971.90
2022-07-30T09:09:22.338Z,968.40
2022-07-30T09:10:22.331Z,976.80
2022-07-30T09:11:22.332Z,978.50
2022-07-30T09:12:22.318Z,962.40
2022-07-30T09:13:22.281Z,963.40
2022-07-30T09:14:22.322Z,969.70
2022-07-30T09:15:23.253Z,976.50
2022-07-30T09:16:22.262Z,960.30
2022-07-30T09:17:22.245Z,966.90
2022-07-30T09:18:22.223Z,961.80
2022-07-30T09:19:22.240Z,960.30
2022-07-30T09:20:22.201Z,959.20
2022-07-30T09:21:22.187Z,958.00
2022-07-30T09:22:22.160Z,950.60
2022-07-30T09:23:22.163Z,950.00
2022-07-30T09:24:22.145Z,951.60
2022-07-30T09:25:22.233Z,953.90
2022-07-30T09:26:22.122Z,953.10
2022-07-30T09:27:22.129Z,957.60
2022-07-30T09:28:22.083Z,955.20
2022-07-30T09:29:22.073Z,958.60
2022-07-30T09:30:22.082Z,947.60
2022-07-30T09:31:22.113Z,957.00
2022-07-30T09:32:22.055Z,946.30
2022-07-30T09:33:22.032Z,947.60
2022-07-30T09:34:22.025Z,940.30
2022-07-30T09:35:22.002Z,950.00
2022-07-30T09:36:22.397Z,945.30
2022-07-30T09:37:21.978Z,953.60
2022-07-30T09:38:21.957Z,944.60
2022-07-30T09:39:21.946Z,952.50
2022-07-30T09:40:21.935Z,940.50
2022-07-30T09:41:38.294Z,933.70
2022-07-30T09:42:22.897Z,933.30
2022-07-30T09:43:25.877Z,940.90
2022-07-30T09:44:22.866Z,932.10
2022-07-30T09:45:21.865Z,933.10
2022-07-30T09:46:21.856Z,926.00
2022-07-30T09:47:22.217Z,935.60
2022-07-30T09:48:21.832Z,927.80
2022-07-30T09:49:21.884Z,929.00
2022-07-30T09:51:54.374Z,908.00
2022-07-30T09:52:27.146Z,905.40
2022-07-30T09:53:22.778Z,901.50
2022-07-30T09:54:21.748Z,897.20
2022-07-30T09:55:21.729Z,898.60
2022-07-30T09:56:21.717Z,896.80
2022-07-30T09:57:26.688Z,888.00
2022-07-30T09:58:26.980Z,867.00
2022-07-30T09:59:22.689Z,858.40
2022-07-30T10:00:23.567Z,869.50
2022-07-30T10:01:21.659Z,889.10
2022-07-30T10:02:22.639Z,878.80
2022-07-30T10:03:33.843Z,873.20
2022-07-30T10:04:22.629Z,867.80
2022-07-30T10:05:21.607Z,862.70
2022-07-30T10:06:21.591Z,865.60
2022-07-30T10:07:25.564Z,848.00
2022-07-30T10:08:21.581Z,840.50
2022-07-30T10:09:21.629Z,839.50
2022-07-30T10:10:21.532Z,834.70
2022-07-30T10:11:22.904Z,807.70
2022-07-30T10:12:24.014Z,803.40
2022-07-30T10:13:21.501Z,804.80
2022-07-30T10:14:30.629Z,808.80
2022-07-30T10:15:22.475Z,810.50
2022-07-30T10:16:21.462Z,804.80
2022-07-30T10:17:21.491Z,786.40
2022-07-30T10:18:21.437Z,778.20
2022-07-30T10:19:23.460Z,778.90
2022-07-30T10:20:22.472Z,777.60
2022-07-30T10:21:21.404Z,755.40
2022-07-30T10:22:21.433Z,752.90
2022-07-30T10:23:27.186Z,743.00
2022-07-30T10:24:27.350Z,755.00
2022-07-30T10:25:23.256Z,770.50
2022-07-30T10:26:22.341Z,767.50
2022-07-30T10:27:21.327Z,772.60
2022-07-30T10:28:21.307Z,755.70
2022-07-30T10:29:21.298Z,782.20
2022-07-30T10:30:24.902Z,795.90
2022-07-30T10:31:47.930Z,784.60
2022-07-30T10:32:30.675Z,774.50
2022-07-30T10:33:34.602Z,787.80
2022-07-30T10:34:23.538Z,790.10
2022-07-30T10:35:34.574Z,791.10
2022-07-30T10:36:23.321Z,798.60
2022-07-30T10:37:21.198Z,796.40
2022-07-30T10:38:21.179Z,805.40
2022-07-30T10:39:21.187Z,802.50
2022-07-30T10:40:23.020Z,787.40
2022-07-30T10:41:22.190Z,796.40
2022-07-30T10:42:22.450Z,784.90
2022-07-30T10:43:21.133Z,814.60
2022-07-30T10:44:21.110Z,778.50
2022-07-30T10:45:21.119Z,878.60
2022-07-30T10:46:22.799Z,869.50
2022-07-30T10:47:23.697Z,848.50
2022-07-30T10:48:22.083Z,776.80
2022-07-30T10:49:21.103Z,765.70
2022-07-30T10:50:22.291Z,778.00
2022-07-30T10:51:34.323Z,820.40
2022-07-30T10:52:22.013Z,847.30
2022-07-30T10:53:24.541Z,767.60
2022-07-30T10:54:21.991Z,754.90
2022-07-30T10:55:20.974Z,779.00
2022-07-30T10:56:25.591Z,781.40
2022-07-30T10:57:26.548Z,758.20
2022-07-30T10:58:23.029Z,748.70
2022-07-30T10:59:21.809Z,768.40
2022-07-30T11:00:21.911Z,752.30
2022-07-30T11:01:20.901Z,747.90
2022-07-30T11:02:20.888Z,738.80
2022-07-30T11:03:20.877Z,756.80
2022-07-30T11:04:21.148Z,760.10
2022-07-30T11:05:44.295Z,764.40
2022-07-30T11:06:24.467Z,764.30
2022-07-30T11:07:20.829Z,764.90
2022-07-30T11:08:20.818Z,760.80
2022-07-30T11:09:21.799Z,754.00
2022-07-30T11:10:20.789Z,770.40
2022-07-30T11:11:20.807Z,759.40
2022-07-30T11:12:22.049Z,736.50
2022-07-30T11:13:25.116Z,713.40
2022-07-30T11:14:20.741Z,705.20
2022-07-30T11:15:20.871Z,718.10
2022-07-30T11:16:20.723Z,731.60
2022-07-30T11:17:20.723Z,722.00
2022-07-30T11:18:20.690Z,732.50
2022-07-30T11:19:55.475Z,714.50
2022-07-30T11:20:21.663Z,713.80
2022-07-30T11:21:22.548Z,709.40
2022-07-30T11:22:20.644Z,717.10
2022-07-30T11:23:20.633Z,747.50
2022-07-30T11:24:20.623Z,752.30
2022-07-30T11:25:20.604Z,746.70
2022-07-30T11:26:20.635Z,757.00
2022-07-30T11:27:20.584Z,757.20
2022-07-30T11:28:20.565Z,766.70
2022-07-30T11:29:20.556Z,762.50
2022-07-30T11:30:23.419Z,750.20
2022-07-30T11:31:20.525Z,753.20
2022-07-30T11:32:21.518Z,748.00
2022-07-30T11:33:20.517Z,724.30
2022-07-30T11:34:20.490Z,724.00
2022-07-30T11:35:23.323Z,741.60
2022-07-30T11:36:20.469Z,727.10
2022-07-30T11:37:22.276Z,736.10
2022-07-30T11:38:22.414Z,724.10
2022-07-30T11:39:20.439Z,727.20
2022-07-30T11:40:26.011Z,715.30
2022-07-30T11:41:21.414Z,725.20
2022-07-30T11:42:20.391Z,745.40
2022-07-30T11:43:20.382Z,741.00
2022-07-30T11:44:21.378Z,734.40
2022-07-30T11:45:20.358Z,752.60
2022-07-30T11:46:29.755Z,745.70
2022-07-30T11:47:21.362Z,698.50
2022-07-30T11:48:20.321Z,724.20
2022-07-30T11:49:20.401Z,738.40
2022-07-30T11:50:20.304Z,775.80
2022-07-30T11:51:20.281Z,782.70
2022-07-30T11:52:20.262Z,777.10
2022-07-30T11:53:20.254Z,733.80
2022-07-30T11:54:20.243Z,731.70
2022-07-30T11:55:20.222Z,739.20
2022-07-30T11:56:20.213Z,715.50
2022-07-30T11:57:20.204Z,714.00
2022-07-30T11:58:20.589Z,716.20
2022-07-30T11:59:20.174Z,723.30
2022-07-30T12:00:20.171Z,689.20
2022-07-30T12:01:20.153Z,698.50
2022-07-30T12:02:20.136Z,672.60
2022-07-30T12:03:20.137Z,669.60
2022-07-30T12:04:20.115Z,665.60
2022-07-30T12:05:20.112Z,650.00
2022-07-30T12:06:20.116Z,656.40
2022-07-30T12:07:20.086Z,631.60
2022-07-30T12:08:35.738Z,650.10
2022-07-30T12:09:21.062Z,630.90
2022-07-30T12:10:26.812Z,604.10
2022-07-30T12:11:21.036Z,600.50
2022-07-30T12:12:20.017Z,576.00
2022-07-30T12:13:19.999Z,572.80
2022-07-30T12:14:20.990Z,561.80
2022-07-30T12:15:19.980Z,556.70
2022-07-30T12:16:19.969Z,555.70
2022-07-30T12:17:19.959Z,543.50
2022-07-30T12:18:27.244Z,531.00
2022-07-30T12:19:21.037Z,573.70
2022-07-30T12:20:19.930Z,599.50
2022-07-30T12:21:19.928Z,611.30
2022-07-30T12:22:19.889Z,646.80
2022-07-30T12:23:21.912Z,673.20
2022-07-30T12:24:19.872Z,669.00
2022-07-30T12:25:19.851Z,667.50
2022-07-30T12:26:19.841Z,678.80
2022-07-30T12:27:19.834Z,671.30
2022-07-30T12:28:19.818Z,658.00
2022-07-30T12:29:19.809Z,650.80